Time;durP1;ratioP1;P1;durP2;ratioP2;P2;SDS_P1;SDS_P2;PMS_P1;PMS_P2;Temp;Humidity;BMP_temperature;BMP_pressure;BME280_temperature;BME280_humidity;BME280_pressure;Samples;Min_cycle;Max_cycle;Signal;HPM_P1;HPM_P2
2023/08/17 00:01:16;;;;;;;2.67;1.17;;;25.60;66.30;;;;;;2308498;55;20939;-73
2023/08/17 00:03:45;;;;;;;2.60;1.20;;;25.60;66.30;;;;;;2546896;54;20956;-69
2023/08/17 00:06:11;;;;;;;2.78;1.10;;;25.60;66.40;;;;;;2547394;54;20944;-70
2023/08/17 00:08:37;;;;;;;2.47;1.25;;;25.50;66.30;;;;;;2308665;55;20969;-73
2023/08/17 00:11:04;;;;;;;3.40;1.05;;;25.40;66.20;;;;;;2547300;54;20987;-69
2023/08/17 00:13:30;;;;;;;2.67;1.10;;;25.50;66.40;;;;;;2547422;54;20948;-72
2023/08/17 00:16:00;;;;;;;2.80;1.10;;;25.50;66.50;;;;;;2547088;54;21452;-69
2023/08/17 00:18:26;;;;;;;3.83;1.20;;;25.50;66.50;;;;;;2308632;55;21043;-70
2023/08/17 00:20:53;;;;;;;2.17;0.98;;;25.40;66.40;;;;;;2514768;54;20985;-70
2023/08/17 00:23:20;;;;;;;3.33;1.08;;;25.40;66.50;;;;;;2543679;54;20971;-70
2023/08/17 00:25:48;;;;;;;1.90;1.12;;;25.40;66.50;;;;;;2513812;54;20985;-69
2023/08/17 00:28:15;;;;;;;2.40;1.08;;;25.40;66.50;;;;;;2510549;54;21515;-70
2023/08/17 00:30:42;;;;;;;2.53;1.30;;;25.40;66.60;;;;;;2546696;54;21333;-70
2023/08/17 00:33:10;;;;;;;2.12;0.98;;;25.30;66.50;;;;;;2308347;55;20979;-70
2023/08/17 00:35:36;;;;;;;3.33;1.20;;;25.30;66.50;;;;;;2546977;54;21449;-73
2023/08/17 00:38:03;;;;;;;2.10;1.02;;;25.30;66.50;;;;;;2546482;54;21440;-70
2023/08/17 00:40:30;;;;;;;2.72;1.10;;;25.30;66.50;;;;;;2546308;54;20987;-71
2023/08/17 00:42:57;;;;;;;2.37;1.23;;;25.30;66.60;;;;;;2308504;55;20979;-69
2023/08/17 00:45:24;;;;;;;2.20;1.10;;;25.20;66.50;;;;;;2542580;54;20972;-71
2023/08/17 00:47:53;;;;;;;2.20;1.17;;;25.20;66.60;;;;;;2514643;54;20991;-68
2023/08/17 00:50:22;;;;;;;3.50;1.00;;;25.20;66.60;;;;;;2307122;55;21031;-71
2023/08/17 00:52:48;;;;;;;2.25;1.10;;;25.10;66.60;;;;;;2546801;54;21007;-70
2023/08/17 00:55:14;;;;;;;3.08;1.20;;;25.20;66.80;;;;;;2547380;54;21007;-71
2023/08/17 00:57:43;;;;;;;3.67;1.20;;;25.10;66.70;;;;;;2306978;55;21390;-71
2023/08/17 01:00:13;;;;;;;2.70;1.20;;;25.10;66.80;;;;;;2547260;54;20999;-69
2023/08/17 01:02:42;;;;;;;3.05;1.30;;;25.10;66.80;;;;;;2308016;55;20971;-71
2023/08/17 01:05:09;;;;;;;2.80;1.23;;;25.00;66.90;;;;;;2287425;55;1300080;-73
2023/08/17 01:07:37;;;;;;;2.85;1.20;;;25.10;67.10;;;;;;2546752;54;20996;-71
2023/08/17 01:10:04;;;;;;;2.67;1.25;;;25.00;67.20;;;;;;2308569;55;20928;-69
2023/08/17 01:12:36;;;;;;;2.47;1.10;;;25.00;67.20;;;;;;2530461;54;20941;-72
2023/08/17 01:17:00;;;;;;;3.42;1.30;;;25.00;67.30;;;;;;2292933;55;20943;-72
2023/08/17 01:19:27;;;;;;;2.50;1.17;;;25.10;67.00;;;;;;2546270;54;21102;-71
2023/08/17 01:22:03;;;;;;;3.05;1.25;;;25.00;67.30;;;;;;2307957;55;21023;-71
2023/08/17 01:24:29;;;;;;;2.05;1.08;;;25.00;67.30;;;;;;2546740;54;21030;-70
2023/08/17 01:26:56;;;;;;;2.03;1.00;;;25.00;67.40;;;;;;2510493;54;21013;-72
2023/08/17 01:29:22;;;;;;;2.10;1.05;;;25.00;67.50;;;;;;2308137;55;21540;-70
2023/08/17 01:32:12;;;;;;;3.42;1.23;;;25.00;67.50;;;;;;2308017;55;21071;-70
2023/08/17 01:34:54;;;;;;;3.00;1.40;;;25.00;67.40;;;;;;2547080;54;20995;-70
2023/08/17 01:37:21;;;;;;;2.67;1.30;;;25.00;67.70;;;;;;2307717;55;20928;-70
2023/08/17 01:39:49;;;;;;;2.45;1.20;;;25.00;67.80;;;;;;2307389;55;20947;-72
2023/08/17 01:42:18;;;;;;;2.70;1.20;;;25.00;67.90;;;;;;2307197;55;20932;-70
2023/08/17 01:44:47;;;;;;;2.60;1.37;;;25.00;67.90;;;;;;2545279;54;21027;-71
2023/08/17 01:47:14;;;;;;;2.53;1.40;;;25.00;68.00;;;;;;2547397;54;20940;-70
2023/08/17 01:49:40;;;;;;;1.90;1.10;;;25.00;68.00;;;;;;2281894;55;20966;-69
2023/08/17 01:52:07;;;;;;;2.55;1.25;;;25.00;68.00;;;;;;2510533;54;20952;-70
2023/08/17 01:54:34;;;;;;;2.42;1.30;;;25.00;68.10;;;;;;2308568;55;20912;-70
2023/08/17 01:57:01;;;;;;;2.92;1.35;;;25.00;68.10;;;;;;2308251;55;20979;-71
2023/08/17 01:59:27;;;;;;;2.70;1.30;;;25.10;68.20;;;;;;2308378;55;20948;-70
2023/08/17 02:01:54;;;;;;;2.53;1.42;;;25.10;68.20;;;;;;2546877;54;20967;-72
2023/08/17 02:04:23;;;;;;;2.42;1.25;;;25.10;68.20;;;;;;2547243;54;20972;-70
2023/08/17 02:06:49;;;;;;;2.60;1.37;;;25.10;68.20;;;;;;2308018;55;20908;-70
2023/08/17 02:09:15;;;;;;;3.12;1.33;;;25.10;68.20;;;;;;2547364;54;21009;-70
2023/08/17 02:11:42;;;;;;;3.40;1.30;;;25.10;68.20;;;;;;2308723;55;20936;-71
2023/08/17 02:14:09;;;;;;;2.72;1.40;;;25.10;68.30;;;;;;2308554;55;21340;-71
2023/08/17 02:16:36;;;;;;;2.58;1.50;;;25.10;68.30;;;;;;2546590;54;21009;-70
2023/08/17 02:19:03;;;;;;;3.08;1.52;;;25.10;68.30;;;;;;2546974;54;21268;-73
2023/08/17 02:21:30;;;;;;;3.92;1.37;;;25.20;68.40;;;;;;2546194;54;21082;-71
2023/08/17 02:23:57;;;;;;;2.80;1.40;;;25.20;68.40;;;;;;2307721;55;21023;-71
2023/08/17 02:26:24;;;;;;;2.92;1.85;;;25.10;68.40;;;;;;2281758;55;21044;-71
2023/08/17 02:28:52;;;;;;;2.85;1.60;;;25.20;68.50;;;;;;2544479;54;20940;-71
2023/08/17 02:31:19;;;;;;;3.10;1.60;;;25.20;68.50;;;;;;2306009;55;21035;-72
2023/08/17 02:33:48;;;;;;;3.67;1.58;;;25.20;68.50;;;;;;2520360;54;20965;-71
2023/08/17 02:36:17;;;;;;;3.33;1.60;;;25.20;68.50;;;;;;2295313;55;20959;-69
2023/08/17 02:38:43;;;;;;;2.85;1.52;;;25.20;68.60;;;;;;2547100;54;21002;-71
2023/08/17 02:41:10;;;;;;;2.33;1.33;;;25.20;68.60;;;;;;2546725;54;20964;-70
2023/08/17 02:43:38;;;;;;;2.60;1.20;;;25.20;68.60;;;;;;2547127;54;21004;-69
2023/08/17 02:46:07;;;;;;;3.10;1.20;;;25.20;68.50;;;;;;2547059;54;20987;-71
2023/08/17 02:48:37;;;;;;;2.55;1.35;;;25.20;68.50;;;;;;2546762;54;20936;-70
2023/08/17 02:51:03;;;;;;;7.80;3.22;;;25.20;68.50;;;;;;2301070;55;21038;-70
2023/08/17 02:53:30;;;;;;;3.55;2.08;;;25.20;68.50;;;;;;2524358;54;20960;-72
2023/08/17 02:55:56;;;;;;;4.25;2.10;;;25.20;68.40;;;;;;2544519;54;20951;-71
2023/08/17 02:58:25;;;;;;;3.62;2.00;;;25.20;68.40;;;;;;2513881;54;20951;-71
2023/08/17 03:00:52;;;;;;;3.67;1.70;;;25.20;68.40;;;;;;2547216;54;20915;-72
2023/08/17 03:03:20;;;;;;;3.85;1.62;;;25.20;68.50;;;;;;2270312;56;21819;-72
2023/08/17 03:05:47;;;;;;;3.53;1.62;;;25.20;68.50;;;;;;2503129;55;21915;-69
2023/08/17 03:08:13;;;;;;;3.78;2.22;;;25.20;68.50;;;;;;2300905;55;20967;-71
2023/08/17 03:10:42;;;;;;;4.72;2.60;;;25.20;68.60;;;;;;2308525;55;20939;-71
2023/08/17 03:13:09;;;;;;;4.20;2.40;;;25.20;68.60;;;;;;2547919;54;20928;-72
2023/08/17 03:15:39;;;;;;;4.18;2.20;;;25.20;68.60;;;;;;2547170;54;22150;-71
2023/08/17 03:18:06;;;;;;;3.78;2.20;;;25.20;68.50;;;;;;2546939;54;21006;-70
2023/08/17 03:20:33;;;;;;;3.83;2.40;;;25.30;68.60;;;;;;2307994;55;21022;-70
2023/08/17 03:22:59;;;;;;;3.08;1.60;;;25.20;68.60;;;;;;2547009;54;20928;-71
2023/08/17 03:25:26;;;;;;;2.95;1.67;;;25.20;68.60;;;;;;2546943;54;20940;-70
2023/08/17 03:27:52;;;;;;;4.45;2.58;;;25.20;68.60;;;;;;2547259;54;21668;-71
2023/08/17 03:30:22;;;;;;;4.75;2.40;;;25.20;68.70;;;;;;2547175;54;20935;-70
2023/08/17 03:32:48;;;;;;;5.93;3.03;;;25.20;68.70;;;;;;2537621;54;21889;-72
2023/08/17 03:35:18;;;;;;;4.25;2.37;;;25.20;68.80;;;;;;2496500;55;20974;-69
2023/08/17 03:37:45;;;;;;;5.22;2.35;;;25.20;68.80;;;;;;2300662;55;21076;-71
2023/08/17 03:40:11;;;;;;;4.00;2.05;;;25.20;68.80;;;;;;2308259;55;21830;-70
2023/08/17 03:42:38;;;;;;;2.85;1.55;;;25.20;69.40;;;;;;2514130;54;21265;-71
2023/08/17 03:45:05;;;;;;;3.83;1.70;;;25.20;68.60;;;;;;2521529;54;20950;-70
2023/08/17 03:47:32;;;;;;;4.50;1.70;;;25.20;68.50;;;;;;2296919;55;20960;-72
2023/08/17 03:49:58;;;;;;;4.28;1.98;;;25.20;68.40;;;;;;2544740;54;20928;-72
2023/08/17 03:52:24;;;;;;;4.93;2.05;;;25.20;68.20;;;;;;2547150;54;21024;-73
2023/08/17 03:54:52;;;;;;;7.18;2.10;;;25.20;68.10;;;;;;2546738;54;20992;-70
2023/08/17 03:57:18;;;;;;;5.10;2.33;;;25.20;68.00;;;;;;2308831;55;21808;-71
2023/08/17 03:59:44;;;;;;;5.68;2.40;;;25.20;68.00;;;;;;2308297;55;20948;-71
2023/08/17 04:02:11;;;;;;;4.78;2.42;;;25.10;67.90;;;;;;2308693;55;21049;-72
2023/08/17 04:04:37;;;;;;;5.50;2.53;;;25.00;67.90;;;;;;2546952;54;20987;-70
2023/08/17 04:07:07;;;;;;;6.72;2.70;;;25.00;68.00;;;;;;2547293;54;20924;-72
2023/08/17 04:09:34;;;;;;;5.90;2.83;;;25.00;68.00;;;;;;2547026;54;20936;-74
2023/08/17 04:12:03;;;;;;;4.50;2.45;;;25.00;68.10;;;;;;2295150;56;20977;-70
2023/08/17 04:14:30;;;;;;;4.55;2.40;;;25.00;68.20;;;;;;2295912;55;21011;-70
2023/08/17 04:16:57;;;;;;;5.03;2.45;;;25.00;68.20;;;;;;2308635;55;21000;-71
2023/08/17 04:19:24;;;;;;;5.62;2.78;;;24.90;68.20;;;;;;2309802;55;20939;-72
2023/08/17 04:21:50;;;;;;;5.18;2.20;;;24.80;68.10;;;;;;2546815;54;21507;-71
2023/08/17 04:24:16;;;;;;;4.35;2.37;;;24.90;68.30;;;;;;2308559;55;20984;-71
2023/08/17 04:26:45;;;;;;;6.50;2.40;;;24.90;68.30;;;;;;2508577;54;21542;-70
2023/08/17 04:29:11;;;;;;;4.65;2.33;;;24.90;68.30;;;;;;2547070;54;21004;-70
2023/08/17 04:31:39;;;;;;;4.90;2.30;;;24.90;68.40;;;;;;2546608;54;20991;-68
2023/08/17 04:34:05;;;;;;;5.43;2.28;;;24.90;68.40;;;;;;2545793;54;20940;-70
2023/08/17 04:36:32;;;;;;;5.28;2.62;;;24.90;68.40;;;;;;2545796;54;20983;-69
2023/08/17 04:38:59;;;;;;;3.90;2.33;;;24.90;68.40;;;;;;2510841;54;21000;-70
2023/08/17 04:41:25;;;;;;;6.53;2.87;;;24.80;68.40;;;;;;2307867;55;20988;-69
2023/08/17 04:43:52;;;;;;;4.43;2.75;;;24.90;68.50;;;;;;2289855;55;21526;-73
2023/08/17 04:46:18;;;;;;;4.50;2.80;;;24.80;68.40;;;;;;2300105;55;20931;-72
2023/08/17 04:48:46;;;;;;;6.00;3.05;;;24.80;68.50;;;;;;2307765;55;20951;-71
2023/08/17 04:51:12;;;;;;;5.90;3.25;;;24.80;68.50;;;;;;2309526;55;20935;-71
2023/08/17 04:53:39;;;;;;;5.60;2.87;;;24.80;68.60;;;;;;2286291;56;21008;-72
2023/08/17 04:56:06;;;;;;;5.03;2.85;;;24.80;68.70;;;;;;2514117;54;20972;-72
2023/08/17 04:58:32;;;;;;;4.50;2.33;;;24.80;68.80;;;;;;2546750;54;21024;-71
2023/08/17 05:00:59;;;;;;;5.47;2.83;;;24.80;68.70;;;;;;2546508;54;21331;-71
2023/08/17 05:03:27;;;;;;;5.62;3.30;;;24.80;68.80;;;;;;2289606;55;20950;-69
2023/08/17 05:05:58;;;;;;;;;;;24.80;68.90;;;;;;2542939;54;21115;-70
2023/08/17 05:08:28;;;;;;;6.15;2.45;;;24.80;68.50;;;;;;2547032;54;20072;-73
2023/08/17 05:10:56;;;;;;;5.78;2.97;;;24.80;68.80;;;;;;2547017;54;22028;-71
2023/08/17 05:13:24;;;;;;;4.50;2.47;;;24.80;68.90;;;;;;2540557;54;21372;-71
2023/08/17 05:15:51;;;;;;;4.22;2.05;;;24.80;68.90;;;;;;2284853;55;21007;-71
2023/08/17 05:18:17;;;;;;;3.00;1.55;;;24.80;68.90;;;;;;2546942;54;21015;-71
2023/08/17 05:20:43;;;;;;;3.00;1.80;;;24.80;68.80;;;;;;2309243;55;20979;-69
2023/08/17 05:23:10;;;;;;;3.28;1.73;;;24.80;68.70;;;;;;2546596;54;21527;-73
2023/08/17 05:25:36;;;;;;;5.43;1.48;;;24.80;68.70;;;;;;2547322;54;21704;-70
2023/08/17 05:28:03;;;;;;;3.03;1.33;;;24.80;68.80;;;;;;2307256;55;21027;-70
2023/08/17 05:30:29;;;;;;;3.30;1.45;;;24.80;68.80;;;;;;2307542;55;20968;-69
2023/08/17 05:32:56;;;;;;;3.65;1.77;;;24.80;68.80;;;;;;2307661;55;21497;-71
2023/08/17 05:35:23;;;;;;;3.35;1.77;;;24.80;68.80;;;;;;2307556;55;20948;-69
2023/08/17 05:37:50;;;;;;;2.67;1.27;;;24.80;68.60;;;;;;2513271;54;20986;-69
2023/08/17 05:40:17;;;;;;;3.47;1.50;;;24.80;68.70;;;;;;2496578;54;20969;-70
2023/08/17 05:42:43;;;;;;;3.72;1.48;;;24.80;68.60;;;;;;2533105;54;21819;-72
2023/08/17 05:45:10;;;;;;;7.20;1.98;;;24.70;68.50;;;;;;2298047;55;21005;-70
2023/08/17 05:47:36;;;;;;;3.08;1.50;;;24.80;68.60;;;;;;2520997;54;21006;-70
2023/08/17 05:50:04;;;;;;;3.50;1.70;;;24.80;68.50;;;;;;2520532;54;20951;-69
2023/08/17 05:52:31;;;;;;;4.03;2.05;;;24.70;68.50;;;;;;2547915;54;21020;-70
2023/08/17 05:54:59;;;;;;;3.72;2.15;;;24.70;68.50;;;;;;2539849;54;20957;-70
2023/08/17 05:57:25;;;;;;;4.32;2.20;;;24.70;68.40;;;;;;2518734;54;21063;-72
2023/08/17 05:59:51;;;;;;;4.70;2.25;;;24.70;68.40;;;;;;2509874;54;20953;-73
2023/08/17 06:02:18;;;;;;;4.57;2.28;;;24.70;68.50;;;;;;2547387;54;20956;-70
2023/08/17 06:04:47;;;;;;;4.70;1.90;;;24.60;68.40;;;;;;2543074;54;21019;-70
2023/08/17 06:07:13;;;;;;;4.45;2.87;;;24.60;68.40;;;;;;2281954;55;21342;-70
2023/08/17 06:09:40;;;;;;;4.10;2.47;;;24.60;69.20;;;;;;2536703;54;21028;-70
2023/08/17 06:12:07;;;;;;;4.37;2.25;;;24.60;68.50;;;;;;2287309;55;20972;-71
2023/08/17 06:14:34;;;;;;;4.68;2.65;;;24.60;68.50;;;;;;2547452;54;21481;-72
2023/08/17 06:17:00;;;;;;;3.85;2.15;;;24.60;68.60;;;;;;2521489;54;21001;-71
2023/08/17 06:19:27;;;;;;;4.45;2.42;;;24.50;68.50;;;;;;2536197;54;20975;-70
2023/08/17 06:21:53;;;;;;;6.82;3.25;;;24.50;68.60;;;;;;2308104;55;21452;-71
2023/08/17 06:24:19;;;;;;;4.87;2.50;;;24.50;68.60;;;;;;2547393;54;21403;-72
2023/08/17 06:26:46;;;;;;;5.03;2.55;;;24.60;68.80;;;;;;2294635;55;21466;-71
2023/08/17 06:29:12;;;;;;;5.12;2.60;;;24.60;68.80;;;;;;2532032;54;20988;-71
2023/08/17 06:31:39;;;;;;;5.47;2.80;;;24.50;68.80;;;;;;2308343;55;20980;-69
2023/08/17 06:34:05;;;;;;;4.72;2.87;;;24.50;68.90;;;;;;2545669;54;21015;-71
2023/08/17 06:36:32;;;;;;;4.70;2.70;;;24.60;69.00;;;;;;2289112;55;21062;-71
2023/08/17 06:38:58;;;;;;;4.20;2.37;;;24.50;68.90;;;;;;2516126;54;21596;-71
2023/08/17 06:41:26;;;;;;;7.95;3.55;;;24.50;68.90;;;;;;2308475;55;21003;-71
2023/08/17 06:43:55;;;;;;;5.00;2.90;;;24.60;69.10;;;;;;2546440;54;20944;-72
2023/08/17 06:46:22;;;;;;;4.82;2.83;;;24.60;69.20;;;;;;2308371;55;21008;-71
2023/08/17 06:48:48;;;;;;;5.00;3.03;;;24.60;69.30;;;;;;2308243;55;20955;-71
2023/08/17 06:51:14;;;;;;;4.28;2.58;;;24.60;69.30;;;;;;2308224;55;20996;-71
2023/08/17 06:53:41;;;;;;;5.35;2.97;;;24.60;69.40;;;;;;2547126;54;20936;-72
2023/08/17 06:56:12;;;;;;;4.60;3.03;;;24.60;69.40;;;;;;2547302;54;20908;-71
2023/08/17 06:58:38;;;;;;;5.03;2.65;;;24.70;69.40;;;;;;2291134;55;21818;-69
2023/08/17 07:01:08;;;;;;;5.45;3.00;;;24.70;69.40;;;;;;2275528;56;20966;-71
2023/08/17 07:03:36;;;;;;;4.25;2.70;;;24.70;69.40;;;;;;2280985;55;21033;-71
2023/08/17 07:06:04;;;;;;;4.43;2.62;;;24.70;69.40;;;;;;2514517;55;20922;-70
2023/08/17 07:08:30;;;;;;;3.83;2.55;;;24.80;69.40;;;;;;2495703;54;21128;-70
2023/08/17 07:10:56;;;;;;;5.05;2.70;;;24.80;69.40;;;;;;2514712;54;21755;-72
2023/08/17 07:13:24;;;;;;;4.90;2.72;;;24.80;69.40;;;;;;2514955;55;20954;-69
2023/08/17 07:15:51;;;;;;;5.85;3.00;;;24.80;69.40;;;;;;2514835;54;20947;-71
2023/08/17 07:18:17;;;;;;;5.57;3.20;;;24.80;69.40;;;;;;2514573;54;21483;-71
2023/08/17 07:20:47;;;;;;;5.65;2.78;;;24.80;70.20;;;;;;2487148;55;20992;-71
2023/08/17 07:23:13;;;;;;;4.57;2.65;;;24.80;69.60;;;;;;2515896;54;20954;-71
2023/08/17 07:25:39;;;;;;;4.43;2.80;;;24.90;69.70;;;;;;2521111;54;20987;-71
2023/08/17 07:28:06;;;;;;;4.65;2.83;;;24.90;69.70;;;;;;2301321;55;21005;-72
2023/08/17 07:30:34;;;;;;;5.53;2.67;;;24.90;69.70;;;;;;2528079;54;20983;-72
2023/08/17 07:33:00;;;;;;;5.28;2.53;;;25.00;69.80;;;;;;2552483;54;20975;-72
2023/08/17 07:35:27;;;;;;;4.90;2.97;;;25.00;69.70;;;;;;2290309;55;21056;-71
2023/08/17 07:37:53;;;;;;;4.53;2.37;;;25.00;69.70;;;;;;2313977;55;21023;-71
2023/08/17 07:40:25;;;;;;;4.93;2.85;;;25.10;69.80;;;;;;2526602;54;20949;-73
2023/08/17 07:42:51;;;;;;;5.18;2.72;;;25.10;69.80;;;;;;2548499;54;20947;-71
2023/08/17 07:45:18;;;;;;;4.40;3.00;;;25.10;69.60;;;;;;2302875;55;20933;-71
2023/08/17 07:47:44;;;;;;;6.53;2.78;;;25.20;69.60;;;;;;2538294;54;20999;-70
2023/08/17 07:50:11;;;;;;;4.57;2.97;;;25.20;69.50;;;;;;2313448;55;21012;-71
2023/08/17 07:52:38;;;;;;;6.35;3.10;;;25.20;69.50;;;;;;2551862;54;20944;-72
2023/08/17 07:55:05;;;;;;;5.03;2.87;;;25.10;69.40;;;;;;2553119;54;20980;-71
2023/08/17 07:57:32;;;;;;;5.37;3.15;;;25.30;70.30;;;;;;2313851;55;21019;-71
2023/08/17 07:59:59;;;;;;;4.75;2.67;;;25.30;69.60;;;;;;2313593;55;20995;-72
2023/08/17 08:02:25;;;;;;;3.60;2.22;;;25.30;69.60;;;;;;2553143;54;20967;-73
2023/08/17 08:04:51;;;;;;;4.68;2.97;;;25.40;69.70;;;;;;2552888;54;20904;-70
2023/08/17 08:07:18;;;;;;;6.57;3.60;;;25.40;69.70;;;;;;2553423;54;20956;-70
2023/08/17 08:09:44;;;;;;;4.95;3.58;;;25.50;69.70;;;;;;2553800;54;21008;-71
2023/08/17 08:12:11;;;;;;;5.62;3.35;;;25.50;69.60;;;;;;2313624;55;20959;-71
2023/08/17 08:14:37;;;;;;;5.28;3.92;;;25.50;69.60;;;;;;2554034;54;20980;-71
2023/08/17 08:17:03;;;;;;;5.03;3.47;;;25.60;69.60;;;;;;2553308;54;21002;-72
2023/08/17 08:19:30;;;;;;;5.72;3.42;;;25.60;69.60;;;;;;2314000;55;20940;-74
2023/08/17 08:21:56;;;;;;;6.50;3.80;;;25.70;69.60;;;;;;2301249;55;21446;-72
2023/08/17 08:24:23;;;;;;;4.35;3.15;;;25.70;69.60;;;;;;2540491;54;20960;-70
2023/08/17 08:27:00;;;;;;;6.25;3.83;;;25.70;69.50;;;;;;2314147;55;21012;-72
2023/08/17 08:29:26;;;;;;;5.60;3.83;;;25.80;69.40;;;;;;2525127;54;20999;-71
2023/08/17 08:31:53;;;;;;;4.90;3.35;;;25.80;69.40;;;;;;2312769;55;20976;-71
2023/08/17 08:34:19;;;;;;;5.53;3.47;;;25.80;69.30;;;;;;2553495;54;20943;-72
2023/08/17 08:36:45;;;;;;;4.37;3.08;;;25.90;69.30;;;;;;2552972;54;20964;-70
2023/08/17 08:39:13;;;;;;;6.93;3.10;;;25.90;69.30;;;;;;2282492;55;21022;-71
2023/08/17 08:41:39;;;;;;;5.25;3.37;;;26.00;69.30;;;;;;2515010;55;21066;-73
2023/08/17 08:44:05;;;;;;;6.43;3.70;;;26.00;69.20;;;;;;2281884;55;21002;-70
2023/08/17 08:46:32;;;;;;;5.85;4.12;;;26.00;69.20;;;;;;2515570;55;21756;-72
2023/08/17 08:48:58;;;;;;;5.90;4.03;;;26.10;69.10;;;;;;2514313;55;22102;-72
2023/08/17 08:51:28;;;;;;;5.87;4.18;;;26.10;69.10;;;;;;2280954;55;20927;-73
2023/08/17 08:54:07;;;;;;;6.47;4.32;;;26.10;68.90;;;;;;2514994;55;21412;-70
2023/08/17 08:56:35;;;;;;;7.47;3.85;;;26.20;68.90;;;;;;2282158;55;21046;-71
2023/08/17 08:59:02;;;;;;;5.47;3.78;;;26.20;69.00;;;;;;2281155;55;20938;-71
2023/08/17 09:01:30;;;;;;;6.53;4.12;;;26.20;69.00;;;;;;2515104;55;20950;-70
2023/08/17 09:04:00;;;;;;;5.62;3.60;;;26.20;69.00;;;;;;2514361;55;21037;-70
2023/08/17 09:06:27;;;;;;;5.28;3.62;;;26.30;69.10;;;;;;2282237;55;20994;-71
2023/08/17 09:08:54;;;;;;;5.78;3.30;;;26.30;69.10;;;;;;2279895;55;20957;-71
2023/08/17 09:11:20;;;;;;;4.60;3.17;;;26.30;69.10;;;;;;2280545;55;21829;-71
2023/08/17 09:13:48;;;;;;;7.00;3.42;;;26.30;69.10;;;;;;2282111;55;20959;-71
2023/08/17 09:16:19;;;;;;;5.65;3.28;;;26.40;69.20;;;;;;2282327;55;20978;-71
2023/08/17 09:18:45;;;;;;;5.72;3.17;;;26.40;69.30;;;;;;2514905;54;21067;-71
2023/08/17 09:21:22;;;;;;;5.97;3.83;;;26.40;69.30;;;;;;2282017;55;21876;-72
2023/08/17 09:23:53;;;;;;;5.90;4.20;;;26.50;69.10;;;;;;2515531;54;20962;-69
2023/08/17 09:26:24;;;;;;;5.00;3.67;;;26.60;69.20;;;;;;2514854;54;20943;-71
2023/08/17 09:28:51;;;;;;;5.28;3.70;;;26.60;69.40;;;;;;2513440;55;20959;-73
2023/08/17 09:31:21;;;;;;;5.45;3.90;;;26.70;69.50;;;;;;2487390;55;21573;-69
2023/08/17 09:33:50;;;;;;;5.35;3.28;;;26.70;69.40;;;;;;2515396;55;20969;-69
2023/08/17 09:36:20;;;;;;;5.00;3.20;;;26.70;69.40;;;;;;2515351;55;20934;-71
2023/08/17 09:38:48;;;;;;;5.50;3.60;;;26.80;69.40;;;;;;2515303;55;20982;-68
2023/08/17 09:41:20;;;;;;;5.12;3.90;;;26.80;69.50;;;;;;2281454;55;20930;-73
2023/08/17 09:43:48;;;;;;;6.40;4.30;;;26.90;69.50;;;;;;2280862;56;20947;-69
2023/08/17 09:46:14;;;;;;;5.32;3.80;;;26.90;69.60;;;;;;2278760;56;21054;-69
2023/08/17 09:48:42;;;;;;;6.60;4.55;;;27.00;69.80;;;;;;2513489;55;21049;-71
2023/08/17 09:51:08;;;;;;;6.28;4.10;;;27.10;69.80;;;;;;2280884;56;21804;-72
2023/08/17 09:53:38;;;;;;;5.90;4.03;;;27.10;70.50;;;;;;2513404;55;21086;-72
2023/08/17 09:56:07;;;;;;;4.95;3.90;;;27.10;69.70;;;;;;2280679;56;20959;-71
2023/08/17 09:58:33;;;;;;;4.95;3.55;;;27.20;69.70;;;;;;2514003;55;21511;-71
2023/08/17 10:01:02;;;;;;;6.15;4.45;;;27.30;69.70;;;;;;2512196;55;20915;-70
2023/08/17 10:03:29;;;;;;;6.65;4.32;;;27.30;69.70;;;;;;2279740;56;21207;-69
2023/08/17 10:06:01;;;;;;;7.07;4.47;;;27.40;69.70;;;;;;2278647;56;21081;-69
2023/08/17 10:08:28;;;;;;;8.02;4.65;;;27.40;69.70;;;;;;2489450;55;20964;-71
2023/08/17 10:10:55;;;;;;;6.07;4.43;;;27.50;69.70;;;;;;2514999;54;21240;-71
2023/08/17 10:13:43;;;;;;;5.45;4.03;;;27.60;69.80;;;;;;2515505;55;21430;-71
2023/08/17 10:16:44;;;;;;;5.90;4.00;;;27.60;69.20;;;;;;2282936;55;20970;-71
2023/08/17 10:19:28;;;;;;;5.10;4.37;;;27.70;69.40;;;;;;2513027;55;20966;-72
2023/08/17 10:23:47;;;;;;;6.28;4.00;;;27.80;69.10;;;;;;2479993;55;20947;-74
2023/08/17 10:26:14;;;;;;;5.10;3.95;;;27.90;69.00;;;;;;2513441;55;21758;-71
2023/08/17 10:28:43;;;;;;;5.57;3.40;;;28.00;69.40;;;;;;2512241;55;20969;-74
2023/08/17 10:31:09;;;;;;;4.15;3.28;;;28.10;69.40;;;;;;2513602;55;21517;-72
2023/08/17 10:33:41;;;;;;;5.12;3.65;;;28.10;69.30;;;;;;2511701;55;20952;-72
2023/08/17 10:36:08;;;;;;;13.68;3.75;;;28.20;69.10;;;;;;2279842;55;20970;-72
2023/08/17 10:38:34;;;;;;;5.22;3.33;;;28.20;68.90;;;;;;2515936;54;21188;-71
2023/08/17 10:41:11;;;;;;;6.25;3.15;;;28.30;68.80;;;;;;2285806;56;21412;-71
2023/08/17 10:43:58;;;;;;;4.97;3.10;;;28.40;68.40;;;;;;2516145;55;20963;-70
2023/08/17 10:46:37;;;;;;;4.85;3.12;;;28.50;68.20;;;;;;2282087;55;20994;-73
2023/08/17 10:49:07;;;;;;;4.68;2.92;;;28.50;68.00;;;;;;2278358;55;20959;-72
2023/08/17 10:51:34;;;;;;;5.57;3.35;;;28.60;68.60;;;;;;2513495;55;20939;-71
2023/08/17 10:54:03;;;;;;;5.03;3.80;;;28.60;68.50;;;;;;2506064;55;20914;-70
2023/08/17 10:56:32;;;;;;;4.53;3.20;;;28.70;68.20;;;;;;2281594;55;21840;-70
2023/08/17 10:59:02;;;;;;;5.12;3.40;;;28.70;68.00;;;;;;2521642;54;20970;-70
2023/08/17 11:01:35;;;;;;;4.97;3.30;;;28.80;67.80;;;;;;2553589;54;20972;-72
2023/08/17 11:04:18;;;;;;;3.95;2.58;;;28.80;67.60;;;;;;2552854;54;20943;-70
2023/08/17 11:06:44;;;;;;;4.00;2.97;;;28.90;67.40;;;;;;2553585;54;21024;-71
2023/08/17 11:09:11;;;;;;;4.57;2.83;;;28.90;68.00;;;;;;2553394;54;20967;-71
2023/08/17 11:11:38;;;;;;;3.65;2.58;;;28.90;67.80;;;;;;2313896;55;20975;-70
2023/08/17 11:14:04;;;;;;;4.20;2.90;;;29.00;67.70;;;;;;2554223;54;20931;-71
2023/08/17 11:16:31;;;;;;;3.80;2.50;;;29.00;67.70;;;;;;2313816;55;20943;-71
2023/08/17 11:18:59;;;;;;;4.90;2.95;;;29.10;67.80;;;;;;2290737;55;20939;-71
2023/08/17 11:21:25;;;;;;;3.90;2.85;;;29.20;67.60;;;;;;2553002;54;20908;-71
2023/08/17 11:23:55;;;;;;;4.03;2.90;;;29.20;67.50;;;;;;2314332;55;20931;-72
2023/08/17 11:26:22;;;;;;;4.00;3.08;;;29.20;67.40;;;;;;2312946;55;21047;-71
2023/08/17 11:28:49;;;;;;;3.80;2.65;;;29.30;67.50;;;;;;2313861;55;20932;-69
2023/08/17 11:31:16;;;;;;;5.35;3.15;;;29.30;67.40;;;;;;2313312;55;21011;-71
2023/08/17 11:33:42;;;;;;;4.55;3.00;;;29.40;67.40;;;;;;2553351;54;21015;-71
2023/08/17 11:36:09;;;;;;;4.07;2.95;;;29.50;67.30;;;;;;2553555;54;20952;-69
2023/08/17 11:38:42;;;;;;;3.80;3.00;;;29.50;67.30;;;;;;2313930;55;20948;-69
2023/08/17 11:41:08;;;;;;;4.47;3.17;;;29.60;67.30;;;;;;2554132;54;21083;-69
2023/08/17 11:43:35;;;;;;;4.97;3.40;;;29.60;67.40;;;;;;2314028;55;21472;-72
2023/08/17 11:46:01;;;;;;;4.95;3.12;;;29.70;67.40;;;;;;2553782;54;20956;-70
2023/08/17 11:48:28;;;;;;;4.57;2.92;;;29.80;67.40;;;;;;2553514;54;21118;-71
2023/08/17 11:50:55;;;;;;;5.00;2.87;;;29.80;67.20;;;;;;2553691;54;20911;-70
2023/08/17 11:53:21;;;;;;;3.80;2.90;;;29.80;67.20;;;;;;2553938;54;21006;-71
2023/08/17 11:55:48;;;;;;;4.00;2.83;;;29.90;67.30;;;;;;2553083;54;20951;-69
2023/08/17 11:58:15;;;;;;;4.40;2.90;;;30.00;67.10;;;;;;2313085;55;20939;-70
2023/08/17 12:00:44;;;;;;;3.70;2.60;;;30.00;66.90;;;;;;2313230;55;21431;-70
2023/08/17 12:03:15;;;;;;;3.87;2.90;;;30.10;66.80;;;;;;2553434;54;20952;-69
2023/08/17 12:05:41;;;;;;;3.92;2.70;;;30.20;66.50;;;;;;2313239;55;20923;-71
2023/08/17 12:08:08;;;;;;;5.30;3.20;;;30.20;66.60;;;;;;2313768;55;20916;-69
2023/08/17 12:10:34;;;;;;;9.35;2.67;;;30.30;66.80;;;;;;2309103;55;21857;-71
2023/08/17 12:13:01;;;;;;;5.60;3.00;;;30.30;66.50;;;;;;2274306;56;21287;-70
2023/08/17 12:15:32;;;;;;;4.25;3.10;;;30.40;66.50;;;;;;2313661;55;21480;-70
2023/08/17 12:17:59;;;;;;;4.55;2.97;;;30.50;66.20;;;;;;2553842;54;22003;-71
2023/08/17 12:20:25;;;;;;;4.10;2.95;;;30.50;66.30;;;;;;2313825;55;20991;-71
2023/08/17 12:22:52;;;;;;;3.87;2.67;;;30.50;66.20;;;;;;2314217;55;21463;-70
2023/08/17 12:25:22;;;;;;;4.07;3.00;;;30.60;66.20;;;;;;2313735;55;21404;-71
2023/08/17 12:27:49;;;;;;;4.05;2.85;;;30.70;65.90;;;;;;2553591;54;20983;-69
2023/08/17 12:30:32;;;;;;;4.00;2.85;;;30.70;65.90;;;;;;2313961;55;21340;-70
2023/08/17 12:32:58;;;;;;;4.15;2.95;;;30.80;65.00;;;;;;2552541;54;20999;-71
2023/08/17 12:35:25;;;;;;;4.87;3.25;;;30.80;65.70;;;;;;2312225;55;22001;-69
2023/08/17 12:37:52;;;;;;;4.37;3.12;;;30.80;65.50;;;;;;2314092;55;20964;-70
2023/08/17 12:40:19;;;;;;;6.07;3.50;;;30.90;65.40;;;;;;2314146;55;20984;-70
2023/08/17 12:42:45;;;;;;;4.72;3.30;;;30.90;65.50;;;;;;2552548;54;21764;-70
2023/08/17 12:45:13;;;;;;;5.40;3.37;;;31.00;65.40;;;;;;2313690;55;20975;-71
2023/08/17 12:47:40;;;;;;;4.78;3.12;;;31.00;65.10;;;;;;2553277;54;20972;-70
2023/08/17 12:50:06;;;;;;;5.22;3.37;;;31.10;65.20;;;;;;2313933;55;20959;-69
2023/08/17 12:52:32;;;;;;;4.70;3.47;;;31.10;64.90;;;;;;2298427;55;21020;-69
2023/08/17 12:55:01;;;;;;;4.95;3.30;;;31.20;64.80;;;;;;2514363;54;21000;-70